createdAt,value
2018-05-01T00:01:09.644Z,928.83
2018-05-01T00:02:41.457Z,928.82
2018-05-01T00:04:13.271Z,928.82
2018-05-01T00:05:45.086Z,928.87
2018-05-01T00:07:17.001Z,928.89
2018-05-01T00:08:48.719Z,928.88
2018-05-01T00:10:20.530Z,928.90
2018-05-01T00:11:52.344Z,928.95
2018-05-01T00:13:24.409Z,928.98
2018-05-01T00:14:55.973Z,928.96
2018-05-01T00:16:27.788Z,928.99
2018-05-01T00:17:59.602Z,928.98
2018-05-01T00:19:31.417Z,928.95
2018-05-01T00:21:03.232Z,928.97
2018-05-01T00:22:35.046Z,928.97
2018-05-01T00:24:06.860Z,928.95
2018-05-01T00:25:38.774Z,928.96
2018-05-01T00:27:10.488Z,928.99
2018-05-01T00:28:42.303Z,928.95
2018-05-01T00:30:14.118Z,928.96
2018-05-01T00:31:45.933Z,928.94
2018-05-01T00:33:17.746Z,928.94
2018-05-01T00:34:49.561Z,928.91
2018-05-01T00:36:21.376Z,928.96
2018-05-01T00:37:53.190Z,928.97
2018-05-01T00:39:25.006Z,928.93
2018-05-01T00:40:56.825Z,928.94
2018-05-01T00:42:28.644Z,928.93
2018-05-01T00:44:00.798Z,928.91
2018-05-01T00:45:32.262Z,928.93
2018-05-01T00:47:04.077Z,928.96
2018-05-01T00:48:35.891Z,928.94
2018-05-01T00:50:07.706Z,928.96
2018-05-01T00:51:39.584Z,928.97
2018-05-01T00:53:11.334Z,928.95
2018-05-01T00:54:43.153Z,928.94
2018-05-01T00:56:14.962Z,928.93
2018-05-01T00:57:46.777Z,928.93
2018-05-01T00:59:18.592Z,928.97
2018-05-01T01:00:50.408Z,928.98
2018-05-01T01:02:22.320Z,928.94
2018-05-01T01:03:54.034Z,928.95
2018-05-01T01:05:25.849Z,928.93
2018-05-01T01:06:57.663Z,928.92
2018-05-01T01:08:29.577Z,928.96
2018-05-01T01:10:01.291Z,928.97
2018-05-01T01:11:33.105Z,928.99
2018-05-01T01:13:04.920Z,928.98
2018-05-01T01:14:36.734Z,928.99
2018-05-01T01:16:08.548Z,929.03
2018-05-01T01:17:40.363Z,929.02
2018-05-01T01:19:12.177Z,929.05
2018-05-01T01:20:44.091Z,929.04
2018-05-01T01:22:15.804Z,929.00
2018-05-01T01:23:47.619Z,929.00
2018-05-01T01:25:19.433Z,928.97
2018-05-01T01:26:51.247Z,929.01
2018-05-01T01:28:23.061Z,928.98
2018-05-01T01:29:54.875Z,929.00
2018-05-01T01:31:26.689Z,929.01
2018-05-01T01:32:58.504Z,929.04
2018-05-01T01:34:30.317Z,928.96
2018-05-01T01:36:02.132Z,928.95
2018-05-01T01:37:33.946Z,928.97
2018-05-01T01:39:06.011Z,928.97
2018-05-01T01:40:37.575Z,928.96
2018-05-01T01:42:09.389Z,929.00
2018-05-01T01:43:41.205Z,928.97
2018-05-01T01:45:13.267Z,929.00
2018-05-01T01:46:44.831Z,929.04
2018-05-01T01:48:16.645Z,929.03
2018-05-01T01:49:48.459Z,929.03
2018-05-01T01:51:20.274Z,929.07
2018-05-01T01:52:52.088Z,929.05
2018-05-01T01:54:23.901Z,929.08
2018-05-01T01:55:55.715Z,929.07
2018-05-01T01:57:27.659Z,929.07
2018-05-01T01:58:59.343Z,929.07
2018-05-01T02:00:31.157Z,929.11
2018-05-01T02:02:02.971Z,929.03
2018-05-01T02:03:34.785Z,929.01
2018-05-01T02:05:06.598Z,928.98
2018-05-01T02:06:38.412Z,928.94
2018-05-01T02:08:10.230Z,928.94
2018-05-01T02:09:42.140Z,928.98
2018-05-01T02:11:13.852Z,928.99
2018-05-01T02:12:45.666Z,928.96
2018-05-01T02:14:17.483Z,928.99
2018-05-01T02:15:49.394Z,928.97
2018-05-01T02:17:21.106Z,928.97
2018-05-01T02:18:52.920Z,928.98
2018-05-01T02:20:24.733Z,928.94
2018-05-01T02:21:56.548Z,928.94
2018-05-01T02:23:28.362Z,928.92
2018-05-01T02:25:00.176Z,928.96
2018-05-01T02:26:31.989Z,928.91
2018-05-01T02:28:03.803Z,928.85
2018-05-01T02:29:35.617Z,928.91
2018-05-01T02:31:07.435Z,928.90
2018-05-01T02:32:39.245Z,928.84
2018-05-01T02:34:11.174Z,928.86
2018-05-01T02:35:42.873Z,928.89
2018-05-01T02:37:14.687Z,928.89
2018-05-01T02:38:46.508Z,928.88
2018-05-01T02:40:18.312Z,928.89
2018-05-01T02:41:50.130Z,928.87
2018-05-01T02:43:21.940Z,928.90
2018-05-01T02:44:53.757Z,928.90
2018-05-01T02:46:25.818Z,928.92
2018-05-01T02:47:57.382Z,928.89
2018-05-01T02:49:29.195Z,928.90
2018-05-01T02:51:01.013Z,928.89
2018-05-01T02:52:32.922Z,928.89
2018-05-01T02:54:04.636Z,928.91
2018-05-01T02:55:36.449Z,928.87
2018-05-01T02:57:08.263Z,928.85
2018-05-01T02:58:40.077Z,928.87
2018-05-01T03:00:11.890Z,928.88
2018-05-01T03:01:43.704Z,928.87
2018-05-01T03:03:15.518Z,928.86
2018-05-01T03:04:47.333Z,928.87
2018-05-01T03:06:19.145Z,928.83
2018-05-01T03:07:50.959Z,928.89
2018-05-01T03:09:22.772Z,928.85
2018-05-01T03:10:54.836Z,928.86
2018-05-01T03:12:26.399Z,928.82
2018-05-01T03:13:58.214Z,928.83
2018-05-01T03:15:30.026Z,928.83
2018-05-01T03:17:02.091Z,928.82
2018-05-01T03:18:33.652Z,928.79
2018-05-01T03:20:05.466Z,928.78
2018-05-01T03:21:37.280Z,928.80
2018-05-01T03:23:09.093Z,928.74
2018-05-01T03:24:40.906Z,928.78
2018-05-01T03:26:12.720Z,928.78
2018-05-01T03:27:44.533Z,928.77
2018-05-01T03:29:16.446Z,928.75
2018-05-01T03:30:48.163Z,928.77
2018-05-01T03:32:19.973Z,928.75
2018-05-01T03:33:51.786Z,928.71
2018-05-01T03:35:23.600Z,928.69
2018-05-01T03:36:55.413Z,928.66
2018-05-01T03:38:27.226Z,928.65
2018-05-01T03:39:59.040Z,928.67
2018-05-01T03:41:30.953Z,928.60
2018-05-01T03:43:02.666Z,928.61
2018-05-01T03:44:34.480Z,928.58
2018-05-01T03:46:06.293Z,928.56
2018-05-01T03:47:38.206Z,928.54
2018-05-01T03:49:09.919Z,928.51
2018-05-01T03:50:41.732Z,928.49
2018-05-01T03:52:13.546Z,928.49
2018-05-01T03:53:45.358Z,928.43
2018-05-01T03:55:17.172Z,928.43
2018-05-01T03:56:48.986Z,928.42
2018-05-01T03:58:20.798Z,928.36
2018-05-01T03:59:52.762Z,928.33
2018-05-01T04:01:24.425Z,928.33
2018-05-01T04:02:56.240Z,928.33
2018-05-01T04:04:28.053Z,928.36
2018-05-01T04:05:59.964Z,928.33
2018-05-01T04:07:31.678Z,928.34
2018-05-01T04:09:03.493Z,928.28
2018-05-01T04:10:35.303Z,928.24
2018-05-01T04:12:07.217Z,928.25
2018-05-01T04:13:38.932Z,928.30
2018-05-01T04:15:10.744Z,928.27
2018-05-01T04:16:42.559Z,928.26
2018-05-01T04:18:14.624Z,928.25
2018-05-01T04:19:46.182Z,928.17
2018-05-01T04:21:17.996Z,928.19
2018-05-01T04:22:49.811Z,928.18
2018-05-01T04:24:21.793Z,928.15
2018-05-01T04:25:53.434Z,928.18
2018-05-01T04:27:25.248Z,928.17
2018-05-01T04:28:57.061Z,928.14
2018-05-01T04:30:28.875Z,928.11
2018-05-01T04:32:00.688Z,928.08
2018-05-01T04:33:32.499Z,928.09
2018-05-01T04:35:04.312Z,928.08
2018-05-01T04:36:36.126Z,928.04
2018-05-01T04:38:07.938Z,928.04
2018-05-01T04:39:39.752Z,928.02
2018-05-01T04:41:11.564Z,928.01
2018-05-01T04:42:43.628Z,928.00
2018-05-01T04:44:15.189Z,927.94
2018-05-01T04:45:47.002Z,927.94
2018-05-01T04:47:18.817Z,927.93
2018-05-01T04:48:50.879Z,927.92
2018-05-01T04:50:22.441Z,927.93
2018-05-01T04:51:54.254Z,927.90
2018-05-01T04:53:26.072Z,927.92
2018-05-01T04:54:57.880Z,927.87
2018-05-01T04:56:29.693Z,927.87
2018-05-01T04:58:01.514Z,927.88
2018-05-01T04:59:33.318Z,927.89
2018-05-01T05:01:05.431Z,927.93
2018-05-01T05:02:36.944Z,927.88
2018-05-01T05:04:08.757Z,927.83
2018-05-01T05:05:40.570Z,927.83
2018-05-01T05:07:12.385Z,927.83
2018-05-01T05:08:44.196Z,927.82
2018-05-01T05:10:16.007Z,927.85
2018-05-01T05:11:47.822Z,927.83
2018-05-01T05:13:19.733Z,927.82
2018-05-01T05:14:51.446Z,927.79
2018-05-01T05:16:23.262Z,927.74
2018-05-01T05:17:55.072Z,927.81
2018-05-01T05:19:27.235Z,927.78
2018-05-01T05:20:58.697Z,927.76
2018-05-01T05:22:30.510Z,927.70
2018-05-01T05:24:02.323Z,927.71
2018-05-01T05:25:34.135Z,927.75
2018-05-01T05:27:05.948Z,927.74
2018-05-01T05:28:37.761Z,927.72
2018-05-01T05:30:09.573Z,927.73
2018-05-01T05:31:41.386Z,927.68
2018-05-01T05:33:13.199Z,927.67
2018-05-01T05:34:45.012Z,927.70
2018-05-01T05:36:16.866Z,927.69
2018-05-01T05:37:48.741Z,927.67
2018-05-01T05:39:20.449Z,927.72
2018-05-01T05:40:52.262Z,927.70
2018-05-01T05:42:24.074Z,927.69
2018-05-01T05:43:55.989Z,927.64
2018-05-01T05:45:27.700Z,927.67
2018-05-01T05:46:59.513Z,927.65
2018-05-01T05:48:31.329Z,927.65
2018-05-01T05:50:03.137Z,927.60
2018-05-01T05:51:34.951Z,927.56
2018-05-01T05:53:06.763Z,927.56
2018-05-01T05:54:38.575Z,927.57
2018-05-01T05:56:10.488Z,927.60
2018-05-01T05:57:42.202Z,927.53
2018-05-01T05:59:14.014Z,927.62
2018-05-01T06:00:45.825Z,927.57
2018-05-01T06:02:17.639Z,927.55
2018-05-01T06:03:49.451Z,927.54
2018-05-01T06:05:21.263Z,927.55
2018-05-01T06:06:53.077Z,927.56
2018-05-01T06:08:24.889Z,927.59
2018-05-01T06:09:56.705Z,927.56
2018-05-01T06:11:28.514Z,927.53
2018-05-01T06:13:00.328Z,927.56
2018-05-01T06:14:32.339Z,927.52
2018-05-01T06:16:03.952Z,927.55
2018-05-01T06:17:35.764Z,927.55
2018-05-01T06:19:07.577Z,927.56
2018-05-01T06:20:39.640Z,927.53
2018-05-01T06:22:11.261Z,927.51
2018-05-01T06:23:43.014Z,927.50
2018-05-01T06:25:14.826Z,927.46
2018-05-01T06:26:46.639Z,927.44
2018-05-01T06:28:18.451Z,927.47
2018-05-01T06:29:50.263Z,927.45
2018-05-01T06:31:22.150Z,927.49
2018-05-01T06:32:53.988Z,927.47
2018-05-01T06:34:25.709Z,927.47
2018-05-01T06:35:57.513Z,927.45
2018-05-01T06:37:29.342Z,927.47
2018-05-01T06:39:01.138Z,927.45
2018-05-01T06:40:32.950Z,927.49
2018-05-01T06:42:04.767Z,927.47
2018-05-01T06:43:36.575Z,927.44
2018-05-01T06:45:08.487Z,927.46
2018-05-01T06:46:40.202Z,927.43
2018-05-01T06:48:12.012Z,927.41
2018-05-01T06:49:43.824Z,927.44
2018-05-01T06:51:15.987Z,927.37
2018-05-01T06:52:47.453Z,927.37
2018-05-01T06:54:19.265Z,927.36
2018-05-01T06:55:51.080Z,927.37
2018-05-01T06:57:22.889Z,927.37
2018-05-01T06:58:54.702Z,927.40
2018-05-01T07:00:26.515Z,927.35
2018-05-01T07:01:58.327Z,927.39
2018-05-01T07:03:30.139Z,927.35
2018-05-01T07:05:01.951Z,927.34
2018-05-01T07:06:33.764Z,927.37
2018-05-01T07:08:05.576Z,927.36
2018-05-01T07:09:37.494Z,927.38
2018-05-01T07:11:09.200Z,927.40
2018-05-01T07:12:41.014Z,927.36
2018-05-01T07:14:12.827Z,927.39
2018-05-01T07:15:44.771Z,927.38
2018-05-01T07:17:16.451Z,927.37
2018-05-01T07:18:48.266Z,927.36
2018-05-01T07:20:20.075Z,927.35
2018-05-01T07:21:51.888Z,927.38
2018-05-01T07:23:23.700Z,927.35
2018-05-01T07:24:55.512Z,927.37
2018-05-01T07:26:27.324Z,927.35
2018-05-01T07:27:59.242Z,927.39
2018-05-01T07:29:30.949Z,927.35
2018-05-01T07:31:02.761Z,927.43
2018-05-01T07:32:34.570Z,927.40
2018-05-01T07:34:06.533Z,927.37
2018-05-01T07:35:38.230Z,927.39
2018-05-01T07:37:10.008Z,927.41
2018-05-01T07:38:41.820Z,927.40
2018-05-01T07:40:13.632Z,927.43
2018-05-01T07:41:45.451Z,927.41
2018-05-01T07:43:17.257Z,927.40
2018-05-01T07:44:49.075Z,927.45
2018-05-01T07:46:21.081Z,927.43
2018-05-01T07:47:52.693Z,927.44
2018-05-01T07:49:24.505Z,927.49
2018-05-01T07:50:56.317Z,927.50
2018-05-01T07:52:28.129Z,927.46
2018-05-01T07:53:59.942Z,927.47
2018-05-01T07:55:31.757Z,927.48
2018-05-01T07:57:03.572Z,927.49
2018-05-01T07:58:35.381Z,927.53
2018-05-01T08:00:07.195Z,927.51
2018-05-01T08:01:39.003Z,927.56
2018-05-01T08:03:10.814Z,927.52
2018-05-01T08:04:42.729Z,927.53
2018-05-01T08:06:14.439Z,927.53
2018-05-01T08:07:46.251Z,927.58
2018-05-01T08:09:18.063Z,927.60
2018-05-01T08:10:49.878Z,927.60
2018-05-01T08:12:21.687Z,927.60
2018-05-01T08:13:53.499Z,927.56
2018-05-01T08:15:25.311Z,927.65
2018-05-01T08:16:57.123Z,927.64
2018-05-01T08:18:28.937Z,927.65
2018-05-01T08:20:00.747Z,927.70
2018-05-01T08:21:32.559Z,927.71
2018-05-01T08:23:04.472Z,927.74
2018-05-01T08:24:36.183Z,927.75
2018-05-01T08:26:07.997Z,927.83
2018-05-01T08:27:39.809Z,927.88
2018-05-01T08:29:11.620Z,927.89
2018-05-01T08:30:43.433Z,927.88
2018-05-01T08:32:15.245Z,927.96
2018-05-01T08:33:47.057Z,927.97
2018-05-01T08:35:19.023Z,927.93
2018-05-01T08:36:50.680Z,927.99
2018-05-01T08:38:22.492Z,927.99
2018-05-01T08:39:54.305Z,928.05
2018-05-01T08:41:26.216Z,928.03
2018-05-01T08:42:57.929Z,928.04
2018-05-01T08:44:29.741Z,928.03
2018-05-01T08:46:01.553Z,928.06
2018-05-01T08:47:33.365Z,928.04
2018-05-01T08:49:05.177Z,928.09
2018-05-01T08:50:36.989Z,928.14
2018-05-01T08:52:08.803Z,928.14
2018-05-01T08:53:40.864Z,928.18
2018-05-01T08:55:12.425Z,928.19
2018-05-01T08:56:44.236Z,928.21
2018-05-01T08:58:16.048Z,928.24
2018-05-01T08:59:47.961Z,928.28
2018-05-01T09:01:19.673Z,928.25
2018-05-01T09:02:51.485Z,928.27
2018-05-01T09:04:23.296Z,928.33
2018-05-01T09:05:55.258Z,928.34
2018-05-01T09:07:26.920Z,928.31
2018-05-01T09:08:58.731Z,928.38
2018-05-01T09:10:30.543Z,928.41
2018-05-01T09:12:02.356Z,928.42
2018-05-01T09:13:34.167Z,928.41
2018-05-01T09:15:05.979Z,928.38
2018-05-01T09:16:37.790Z,928.40
2018-05-01T09:18:10.027Z,928.42
2018-05-01T09:19:41.419Z,928.45
2018-05-01T09:21:13.226Z,928.46
2018-05-01T09:22:45.061Z,928.50
2018-05-01T09:24:16.851Z,928.51
2018-05-01T09:25:48.662Z,928.56
2018-05-01T09:27:20.478Z,928.53
2018-05-01T09:28:52.286Z,928.59
2018-05-01T09:30:24.100Z,928.62
2018-05-01T09:31:55.908Z,928.68
2018-05-01T09:33:27.722Z,928.67
2018-05-01T09:34:59.533Z,928.69
2018-05-01T09:36:31.645Z,928.79
2018-05-01T09:38:03.157Z,928.80
2018-05-01T09:39:34.969Z,928.80
2018-05-01T09:41:06.781Z,928.84
2018-05-01T09:42:38.596Z,928.83
2018-05-01T09:44:10.406Z,928.89
2018-05-01T09:45:42.218Z,928.89
2018-05-01T09:47:14.030Z,928.90
2018-05-01T09:48:45.846Z,928.96
2018-05-01T09:50:17.656Z,928.94
2018-05-01T09:51:49.468Z,928.95
2018-05-01T09:53:21.306Z,928.96
2018-05-01T09:54:53.446Z,928.96
2018-05-01T09:56:24.908Z,929.01
2018-05-01T09:57:56.722Z,929.06
2018-05-01T09:59:28.535Z,929.06
2018-05-01T10:01:00.349Z,929.10
2018-05-01T10:02:32.163Z,929.14
2018-05-01T10:04:03.977Z,929.13
2018-05-01T10:05:35.994Z,929.21
2018-05-01T10:07:07.606Z,929.23
2018-05-01T10:08:39.421Z,929.22
2018-05-01T10:10:11.236Z,929.24
2018-05-01T10:11:43.051Z,929.30
2018-05-01T10:13:14.966Z,929.36
2018-05-01T10:14:46.681Z,929.34
2018-05-01T10:16:18.497Z,929.35
2018-05-01T10:17:50.312Z,929.41
2018-05-01T10:19:22.229Z,929.41
2018-05-01T10:20:53.949Z,929.41
2018-05-01T10:22:25.964Z,929.46
2018-05-01T10:23:57.882Z,929.51
2018-05-01T10:25:29.646Z,929.51
2018-05-01T10:27:01.214Z,929.49
2018-05-01T10:28:33.039Z,929.55
2018-05-01T10:30:04.847Z,929.61
2018-05-01T10:31:36.764Z,929.63
2018-05-01T10:33:08.481Z,929.64
2018-05-01T10:34:40.299Z,929.74
2018-05-01T10:36:12.118Z,929.79
2018-05-01T10:37:43.936Z,929.84
2018-05-01T10:39:15.754Z,929.91
2018-05-01T10:40:47.876Z,929.99
2018-05-01T10:42:19.392Z,930.04
2018-05-01T10:43:51.211Z,930.07
2018-05-01T10:45:23.031Z,930.05
2018-05-01T10:46:54.848Z,930.08
2018-05-01T10:48:26.666Z,930.14
2018-05-01T10:49:58.787Z,930.16
2018-05-01T10:51:30.303Z,930.21
2018-05-01T10:53:02.122Z,930.17
2018-05-01T10:54:33.942Z,930.22
2018-05-01T10:56:06.008Z,930.25
2018-05-01T10:57:37.577Z,930.30
2018-05-01T10:59:09.396Z,930.35
2018-05-01T11:00:41.228Z,930.33
2018-05-01T11:02:13.026Z,930.36
2018-05-01T11:03:44.844Z,930.43
2018-05-01T11:05:16.660Z,930.48
2018-05-01T11:06:48.478Z,930.40
2018-05-01T11:08:20.674Z,930.45
2018-05-01T11:09:52.112Z,930.41
2018-05-01T11:11:24.233Z,930.45
2018-05-01T11:12:56.051Z,930.50
2018-05-01T11:14:27.564Z,930.56
2018-05-01T11:15:59.380Z,930.55
2018-05-01T11:17:31.228Z,930.54
2018-05-01T11:19:03.016Z,930.44
2018-05-01T11:20:34.833Z,930.55
2018-05-01T11:22:06.651Z,930.58
2018-05-01T11:23:38.469Z,930.52
2018-05-01T11:25:10.287Z,930.57
2018-05-01T11:26:42.472Z,930.53
2018-05-01T11:28:14.125Z,930.64
2018-05-01T11:29:45.944Z,930.73
2018-05-01T11:31:17.863Z,930.68
2018-05-01T11:32:49.377Z,930.78
2018-05-01T11:34:21.195Z,930.84
2018-05-01T11:35:53.013Z,930.81
2018-05-01T11:37:24.830Z,930.87
2018-05-01T11:38:56.649Z,930.86
2018-05-01T11:40:28.466Z,930.88
2018-05-01T11:42:00.283Z,930.94
2018-05-01T11:43:32.301Z,930.92
2018-05-01T11:45:04.038Z,930.89
2018-05-01T11:46:35.734Z,930.98
2018-05-01T11:48:07.855Z,930.97
2018-05-01T11:49:39.368Z,931.01
2018-05-01T11:51:11.189Z,931.10
2018-05-01T11:52:43.006Z,931.11
2018-05-01T11:54:14.820Z,931.03
2018-05-01T11:55:46.638Z,931.04
2018-05-01T11:57:18.457Z,931.17
2018-05-01T11:58:50.274Z,930.96
2018-05-01T12:00:22.092Z,930.94
2018-05-01T12:01:53.911Z,931.03
2018-05-01T12:03:26.097Z,930.87
2018-05-01T12:04:57.858Z,930.94
2018-05-01T12:06:29.370Z,930.93
2018-05-01T12:08:01.191Z,930.77
2018-05-01T12:09:33.011Z,930.98
2018-05-01T12:11:04.831Z,930.91
2018-05-01T12:12:36.654Z,931.10
2018-05-01T12:14:08.475Z,931.07
2018-05-01T12:17:12.125Z,931.12
2018-05-01T12:18:43.943Z,931.07
2018-05-01T12:21:47.584Z,931.30
2018-05-01T12:23:19.811Z,931.20
2018-05-01T12:24:51.227Z,931.11
2018-05-01T12:26:23.047Z,931.22
2018-05-01T12:27:54.868Z,931.34
2018-05-01T12:29:26.690Z,931.31
2018-05-01T12:30:58.512Z,931.38
2018-05-01T12:32:30.333Z,931.44
2018-05-01T12:35:33.975Z,931.39
2018-05-01T12:37:06.102Z,931.52
2018-05-01T12:38:38.224Z,931.43
2018-05-01T12:40:09.744Z,931.43
2018-05-01T12:41:41.360Z,931.47
2018-05-01T12:43:13.080Z,931.47
2018-05-01T12:44:44.903Z,931.52
2018-05-01T12:46:16.721Z,931.68
2018-05-01T12:47:48.543Z,931.60
2018-05-01T12:49:20.362Z,931.47
2018-05-01T12:52:24.007Z,931.38
2018-05-01T12:56:59.876Z,931.37
2018-05-01T12:58:31.294Z,931.33
2018-05-01T13:00:03.118Z,931.28
2018-05-01T13:01:34.941Z,931.39
2018-05-01T13:03:06.766Z,931.37
2018-05-01T13:04:38.588Z,931.34
2018-05-01T13:06:10.461Z,931.36
2018-05-01T13:07:42.236Z,931.36
2018-05-01T13:09:14.069Z,931.38
2018-05-01T13:12:17.709Z,931.35
2018-05-01T13:15:21.455Z,931.28
2018-05-01T13:16:53.181Z,931.39
2018-05-01T13:18:25.000Z,931.38
2018-05-01T13:19:56.826Z,931.43
2018-05-01T13:21:28.645Z,931.39
2018-05-01T13:23:00.467Z,931.27
2018-05-01T13:24:32.292Z,931.25
2018-05-01T13:26:04.111Z,931.21
2018-05-01T13:27:35.932Z,931.11
2018-05-01T13:29:07.961Z,931.16
2018-05-01T13:32:11.400Z,931.10
2018-05-01T13:33:43.322Z,931.13
2018-05-01T13:35:15.046Z,931.12
2018-05-01T13:36:46.869Z,931.36
2018-05-01T13:38:18.692Z,931.46
2018-05-01T13:39:50.517Z,931.32
2018-05-01T13:41:22.341Z,931.42
2018-05-01T13:44:25.990Z,931.23
2018-05-01T13:47:29.640Z,930.96
2018-05-01T13:49:01.726Z,930.97
2018-05-01T13:50:33.309Z,931.02
2018-05-01T13:52:05.117Z,930.91
2018-05-01T13:53:37.047Z,930.99
2018-05-01T13:55:08.763Z,931.11
2018-05-01T13:56:40.587Z,931.21
2018-05-01T13:58:12.413Z,931.14
2018-05-01T13:59:44.239Z,931.06
2018-05-01T14:01:16.266Z,931.02
2018-05-01T14:02:47.887Z,930.87
2018-05-01T14:04:19.723Z,930.97
2018-05-01T14:05:51.841Z,931.01
2018-05-01T14:07:23.362Z,930.92
2018-05-01T14:08:55.188Z,930.91
2018-05-01T14:10:27.014Z,930.82
2018-05-01T14:11:59.140Z,930.69
2018-05-01T14:13:30.664Z,930.66
2018-05-01T14:15:02.490Z,930.67
2018-05-01T14:16:34.317Z,930.60
2018-05-01T14:18:06.141Z,930.60
2018-05-01T14:19:37.967Z,930.60
2018-05-01T14:21:09.996Z,930.62
2018-05-01T14:22:41.619Z,930.57
2018-05-01T14:24:13.445Z,930.54
2018-05-01T14:25:45.323Z,930.47
2018-05-01T14:27:17.100Z,930.53
2018-05-01T14:28:48.924Z,930.51
2018-05-01T14:30:21.106Z,930.58
2018-05-01T14:31:52.577Z,930.53
2018-05-01T14:33:24.403Z,930.31
2018-05-01T14:34:56.432Z,930.38
2018-05-01T14:36:28.076Z,930.19
2018-05-01T14:39:31.710Z,930.13
2018-05-01T14:41:03.843Z,930.17
2018-05-01T14:42:35.361Z,930.19
2018-05-01T14:44:07.186Z,930.22
2018-05-01T14:45:39.016Z,930.23
2018-05-01T14:47:10.840Z,930.25
2018-05-01T14:48:42.861Z,930.30
2018-05-01T14:50:14.484Z,930.22
2018-05-01T14:53:18.135Z,930.11
2018-05-01T14:54:49.960Z,930.14
2018-05-01T14:56:21.988Z,930.23
2018-05-01T14:57:53.611Z,930.21
2018-05-01T14:59:25.640Z,930.09
2018-05-01T15:00:57.795Z,929.99
2018-05-01T15:02:29.091Z,930.04
2018-05-01T15:04:00.916Z,930.02
2018-05-01T15:05:32.747Z,930.05
2018-05-01T15:07:04.921Z,929.97
2018-05-01T15:08:36.398Z,929.96
2018-05-01T15:10:08.224Z,930.18
2018-05-01T15:11:40.051Z,930.19
2018-05-01T15:14:43.704Z,930.15
2018-05-01T15:17:47.357Z,929.95
2018-05-01T15:19:19.585Z,929.86
2018-05-01T15:20:51.014Z,929.82
2018-05-01T15:22:22.842Z,929.76
2018-05-01T15:23:54.670Z,929.73
2018-05-01T15:25:26.501Z,929.58
2018-05-01T15:26:58.427Z,929.63
2018-05-01T15:28:30.156Z,929.66
2018-05-01T15:30:02.031Z,929.70
2018-05-01T15:31:34.014Z,929.72
2018-05-01T15:33:05.636Z,929.66
2018-05-01T15:34:37.668Z,929.69
2018-05-01T15:36:09.288Z,929.64
2018-05-01T15:37:41.125Z,929.58
2018-05-01T15:39:12.940Z,929.50
2018-05-01T15:40:44.764Z,929.55
2018-05-01T15:42:16.590Z,929.46
2018-05-01T15:43:48.415Z,929.57
2018-05-01T15:45:20.342Z,929.54
2018-05-01T15:46:52.069Z,929.64
2018-05-01T15:48:24.096Z,929.64
2018-05-01T15:49:56.027Z,929.64
2018-05-01T15:51:27.852Z,929.50
2018-05-01T15:52:59.375Z,929.53
2018-05-01T15:54:31.202Z,929.56
2018-05-01T15:56:03.029Z,929.48
2018-05-01T15:57:34.857Z,929.46
2018-05-01T15:59:06.689Z,929.40
2018-05-01T16:00:38.539Z,929.36
2018-05-01T16:02:10.342Z,929.19
2018-05-01T16:03:42.372Z,929.29
2018-05-01T16:05:13.999Z,929.25
2018-05-01T16:08:17.656Z,929.31
2018-05-01T16:09:49.483Z,929.25
2018-05-01T16:11:21.307Z,929.19
2018-05-01T16:12:53.133Z,929.20
2018-05-01T16:14:25.018Z,929.15
2018-05-01T16:15:56.787Z,929.20
2018-05-01T16:17:28.613Z,929.07
2018-05-01T16:19:00.441Z,929.06
2018-05-01T16:20:32.267Z,929.05
2018-05-01T16:22:04.198Z,928.99
2018-05-01T16:23:35.922Z,929.00
2018-05-01T16:25:07.955Z,928.97
2018-05-01T16:26:39.880Z,928.97
2018-05-01T16:28:11.403Z,928.94
2018-05-01T16:29:43.230Z,928.97
2018-05-01T16:31:15.058Z,928.93
2018-05-01T16:32:46.885Z,928.92
2018-05-01T16:34:18.814Z,928.91
2018-05-01T16:35:50.563Z,928.92
2018-05-01T16:37:22.370Z,928.84
2018-05-01T16:38:54.194Z,929.13
2018-05-01T16:40:26.323Z,929.14
2018-05-01T16:43:29.675Z,929.02
2018-05-01T16:45:01.503Z,928.97
2018-05-01T16:46:33.328Z,928.77
2018-05-01T16:48:05.156Z,928.64
2018-05-01T16:49:36.982Z,928.62
2018-05-01T16:51:08.808Z,928.65
2018-05-01T16:52:40.633Z,928.64
2018-05-01T16:54:12.458Z,928.62
2018-05-01T16:55:44.284Z,928.66
2018-05-01T16:57:16.108Z,928.68
2018-05-01T16:58:48.035Z,928.63
2018-05-01T17:00:19.761Z,928.55
2018-05-01T17:01:51.892Z,928.56
2018-05-01T17:03:23.411Z,928.55
2018-05-01T17:04:55.335Z,928.52
2018-05-01T17:06:27.059Z,928.53
2018-05-01T17:07:58.885Z,928.51
2018-05-01T17:09:30.712Z,928.47
2018-05-01T17:11:02.538Z,928.49
2018-05-01T17:12:34.364Z,928.58
2018-05-01T17:14:06.190Z,928.60
2018-05-01T17:18:41.974Z,928.52
2018-05-01T17:20:13.695Z,928.51
2018-05-01T17:21:45.320Z,928.49
2018-05-01T17:23:17.148Z,928.49
2018-05-01T17:24:48.971Z,928.47
2018-05-01T17:26:20.796Z,928.46
2018-05-01T17:27:52.629Z,928.42
2018-05-01T17:29:24.446Z,928.46
2018-05-01T17:30:56.271Z,928.47
2018-05-01T17:32:28.095Z,928.46
2018-05-01T17:33:59.919Z,928.52
2018-05-01T17:35:31.744Z,928.51
2018-05-01T17:37:03.667Z,928.63
2018-05-01T17:38:35.392Z,928.65
2018-05-01T17:40:07.524Z,928.54
2018-05-01T17:41:39.037Z,928.50
2018-05-01T17:43:10.866Z,928.48
2018-05-01T17:44:42.683Z,928.50
2018-05-01T17:46:14.507Z,928.54
2018-05-01T17:47:46.329Z,928.49
2018-05-01T17:49:18.152Z,928.46
2018-05-01T17:50:49.975Z,928.44
2018-05-01T17:52:21.998Z,928.48
2018-05-01T17:53:53.618Z,928.43
2018-05-01T17:55:25.845Z,928.46
2018-05-01T17:56:57.264Z,928.43
2018-05-01T17:58:29.083Z,928.45
2018-05-01T18:00:00.905Z,928.53
2018-05-01T18:01:32.728Z,928.57
2018-05-01T18:03:04.548Z,928.54
2018-05-01T18:04:36.377Z,928.41
2018-05-01T18:06:08.191Z,928.45
2018-05-01T18:07:40.011Z,928.43
2018-05-01T18:10:43.654Z,928.33
2018-05-01T18:13:47.903Z,928.34
2018-05-01T18:15:19.117Z,928.35
2018-05-01T18:16:50.938Z,928.40
2018-05-01T18:18:22.758Z,928.35
2018-05-01T18:19:54.703Z,928.32
2018-05-01T18:21:26.400Z,928.33
2018-05-01T18:22:58.221Z,928.31
2018-05-01T18:24:30.244Z,928.38
2018-05-01T18:26:01.868Z,928.30
2018-05-01T18:27:33.682Z,928.36
2018-05-01T18:29:05.503Z,928.30
2018-05-01T18:30:37.399Z,928.33
2018-05-01T18:32:09.241Z,928.34
2018-05-01T18:33:40.961Z,928.35
2018-05-01T18:35:12.781Z,928.35
2018-05-01T18:36:44.608Z,928.37
2018-05-01T18:38:16.419Z,928.47
2018-05-01T18:39:48.238Z,928.39
2018-05-01T18:42:51.875Z,928.40
2018-05-01T18:44:23.694Z,928.43
2018-05-01T18:45:55.516Z,928.41
2018-05-01T18:47:27.332Z,928.39
2018-05-01T18:48:59.154Z,928.43
2018-05-01T18:50:31.070Z,928.45
2018-05-01T18:52:02.789Z,928.51
2018-05-01T18:53:34.607Z,928.49
2018-05-01T18:55:06.426Z,928.51
2018-05-01T18:56:38.246Z,928.51
2018-05-01T18:58:10.064Z,928.59
2018-05-01T18:59:41.883Z,928.59
2018-05-01T19:01:13.702Z,928.61
2018-05-01T19:02:45.521Z,928.64
2018-05-01T19:04:17.425Z,928.73
2018-05-01T19:05:49.159Z,928.72
2018-05-01T19:07:20.978Z,928.75
2018-05-01T19:08:52.904Z,928.76
2018-05-01T19:10:24.650Z,928.77
2018-05-01T19:11:56.459Z,928.84
2018-05-01T19:13:28.255Z,928.77
2018-05-01T19:15:00.072Z,928.75
2018-05-01T19:16:31.891Z,928.82
2018-05-01T19:18:03.709Z,928.77
2018-05-01T19:19:35.528Z,928.78
2018-05-01T19:21:07.597Z,928.72
2018-05-01T19:22:39.166Z,928.72
2018-05-01T19:24:10.985Z,928.76
2018-05-01T19:25:42.804Z,928.74
2018-05-01T19:27:14.723Z,928.71
2018-05-01T19:28:46.442Z,928.69
2018-05-01T19:30:18.261Z,928.71
2018-05-01T19:31:50.080Z,928.67
2018-05-01T19:33:21.900Z,928.67
2018-05-01T19:34:53.719Z,928.68
2018-05-01T19:36:25.538Z,928.69
2018-05-01T19:37:57.357Z,928.67
2018-05-01T19:39:29.178Z,928.73